createdAt,value
2019-05-19T00:02:34.559Z,29
2019-05-19T00:07:36.993Z,32
2019-05-19T00:12:39.475Z,31
2019-05-19T00:17:41.931Z,32
2019-05-19T00:22:44.377Z,32
2019-05-19T00:27:46.853Z,35
2019-05-19T00:32:49.301Z,37
2019-05-19T00:37:51.779Z,37
2019-05-19T00:42:54.212Z,36
2019-05-19T00:47:56.669Z,33
2019-05-19T00:52:59.140Z,40
2019-05-19T00:58:01.591Z,36
2019-05-19T01:03:04.074Z,37
2019-05-19T01:08:06.548Z,38
2019-05-19T01:13:08.960Z,39
2019-05-19T01:18:11.453Z,41
2019-05-19T01:23:13.902Z,37
2019-05-19T01:28:16.319Z,42
2019-05-19T01:33:18.807Z,40
2019-05-19T01:38:21.256Z,40
2019-05-19T01:43:23.717Z,39
2019-05-19T01:48:27.960Z,42
2019-05-19T01:53:28.622Z,44
2019-05-19T01:58:31.147Z,50
2019-05-19T02:03:33.544Z,45
2019-05-19T02:08:35.991Z,49
2019-05-19T02:13:38.505Z,47
2019-05-19T02:18:40.971Z,47
2019-05-19T02:23:43.357Z,48
2019-05-19T02:28:45.874Z,45
2019-05-19T02:33:48.292Z,51
2019-05-19T02:38:50.779Z,47
2019-05-19T02:43:53.267Z,55
2019-05-19T02:48:55.641Z,56
2019-05-19T02:53:58.093Z,63
2019-05-19T02:59:00.602Z,58
2019-05-19T03:04:03.016Z,60
2019-05-19T03:09:05.482Z,67
2019-05-19T03:14:08.016Z,56
2019-05-19T03:19:10.416Z,55
2019-05-19T03:24:12.848Z,50
2019-05-19T03:29:15.337Z,46
2019-05-19T03:34:17.760Z,55
2019-05-19T03:39:20.215Z,55
2019-05-19T03:44:22.849Z,51
2019-05-19T03:49:25.177Z,52
2019-05-19T03:54:27.596Z,53
2019-05-19T03:59:30.044Z,54
2019-05-19T04:04:32.521Z,52
2019-05-19T04:09:35.000Z,47
2019-05-19T04:14:37.475Z,47
2019-05-19T04:19:39.899Z,47
2019-05-19T04:24:42.344Z,44
2019-05-19T04:29:44.840Z,41
2019-05-19T04:34:47.278Z,40
2019-05-19T04:39:49.752Z,38
2019-05-19T04:44:52.191Z,36
2019-05-19T04:49:54.644Z,39
2019-05-19T04:54:57.125Z,30
2019-05-19T04:59:59.549Z,30
2019-05-19T05:05:02.053Z,28
2019-05-19T05:10:04.513Z,27
2019-05-19T05:15:06.987Z,25
2019-05-19T05:20:09.461Z,25
2019-05-19T05:25:11.858Z,28
2019-05-19T05:30:14.368Z,25
2019-05-19T05:35:16.767Z,22
2019-05-19T05:40:19.204Z,22
2019-05-19T05:45:21.764Z,20
2019-05-19T05:50:24.226Z,21
2019-05-19T05:55:26.590Z,22
2019-05-19T06:00:29.056Z,20
2019-05-19T06:05:31.505Z,20
2019-05-19T06:10:33.954Z,26
2019-05-19T06:15:36.466Z,18
2019-05-19T06:20:38.971Z,19
2019-05-19T06:25:41.330Z,20
2019-05-19T06:30:43.904Z,18
2019-05-19T06:35:46.250Z,22
2019-05-19T06:40:48.772Z,15
2019-05-19T06:45:51.190Z,17
2019-05-19T06:50:53.712Z,15
2019-05-19T06:55:56.097Z,16
2019-05-19T07:00:59.170Z,17
2019-05-19T07:06:01.037Z,16
2019-05-19T07:11:03.491Z,16
2019-05-19T07:16:05.963Z,16
2019-05-19T07:21:08.465Z,17
2019-05-19T07:26:10.824Z,16
2019-05-19T07:31:13.295Z,15
2019-05-19T07:36:15.779Z,16
2019-05-19T07:41:18.205Z,16
2019-05-19T07:46:20.738Z,14
2019-05-19T07:51:23.203Z,14
2019-05-19T07:56:25.634Z,16
2019-05-19T08:01:28.045Z,14
2019-05-19T08:06:30.533Z,14
2019-05-19T08:11:33.018Z,13
2019-05-19T08:16:35.428Z,13
2019-05-19T08:21:38.158Z,13
2019-05-19T08:26:40.336Z,15
2019-05-19T08:31:42.818Z,15
2019-05-19T08:36:45.322Z,14
2019-05-19T08:41:47.762Z,14
2019-05-19T08:46:50.197Z,12
2019-05-19T08:51:52.834Z,11
2019-05-19T08:56:55.159Z,13
2019-05-19T09:01:57.612Z,12
2019-05-19T09:07:00.054Z,12
2019-05-19T09:12:02.499Z,13
2019-05-19T09:17:05.016Z,12
2019-05-19T09:22:07.642Z,10
2019-05-19T09:27:09.875Z,10
2019-05-19T09:32:12.321Z,9
2019-05-19T09:37:14.811Z,10
2019-05-19T09:42:17.267Z,11
2019-05-19T09:47:19.713Z,10
2019-05-19T09:52:22.262Z,9
2019-05-19T09:57:24.712Z,10
2019-05-19T10:02:27.082Z,10
2019-05-19T10:07:29.678Z,10
2019-05-19T10:12:32.039Z,10
2019-05-19T10:17:34.544Z,10
2019-05-19T10:22:37.006Z,10
2019-05-19T10:27:39.390Z,10
2019-05-19T10:32:41.861Z,9
2019-05-19T10:37:44.340Z,9
2019-05-19T10:42:46.868Z,11
2019-05-19T10:47:49.231Z,9
2019-05-19T10:52:51.729Z,10
2019-05-19T10:57:54.160Z,9
2019-05-19T11:02:56.617Z,10
2019-05-19T11:07:59.085Z,9
2019-05-19T11:18:06.424Z,7
2019-05-19T11:23:06.593Z,7
2019-05-19T11:28:08.933Z,8
2019-05-19T11:33:11.376Z,8
2019-05-19T11:38:13.833Z,7
2019-05-19T11:43:16.290Z,7
2019-05-19T11:48:18.787Z,7
2019-05-19T11:53:21.260Z,7
2019-05-19T11:58:23.727Z,7
2019-05-19T12:03:26.170Z,7
2019-05-19T12:08:28.615Z,7
2019-05-19T12:13:32.974Z,8
2019-05-19T12:18:33.539Z,9
2019-05-19T12:23:35.999Z,8
2019-05-19T12:28:38.446Z,9
2019-05-19T12:33:51.358Z,9
2019-05-19T12:38:43.385Z,10
2019-05-19T12:43:45.915Z,11
2019-05-19T12:48:48.366Z,10
2019-05-19T12:53:50.813Z,10
2019-05-19T12:58:53.191Z,9
2019-05-19T13:03:55.668Z,11
2019-05-19T13:08:58.135Z,10
2019-05-19T13:14:00.596Z,11
2019-05-19T13:19:03.067Z,11
2019-05-19T13:24:05.495Z,10
2019-05-19T13:29:07.972Z,10
2019-05-19T13:34:11.637Z,10
2019-05-19T13:39:12.877Z,9
2019-05-19T13:44:15.366Z,9
2019-05-19T13:49:17.965Z,10
2019-05-19T13:54:20.258Z,10
2019-05-19T13:59:22.732Z,10
2019-05-19T14:04:25.204Z,11
2019-05-19T14:09:27.628Z,10
2019-05-19T14:14:30.095Z,9
2019-05-19T14:19:32.578Z,11
2019-05-19T14:24:34.996Z,9
2019-05-19T14:29:37.482Z,10
2019-05-19T14:34:39.965Z,9
2019-05-19T14:39:42.398Z,10
2019-05-19T14:44:44.941Z,8
2019-05-19T14:49:47.326Z,8
2019-05-19T14:54:49.749Z,9
2019-05-19T14:59:52.208Z,8
2019-05-19T15:04:54.663Z,8
2019-05-19T15:09:57.137Z,10
2019-05-19T15:14:59.603Z,10
2019-05-19T15:20:02.111Z,10
2019-05-19T15:25:04.525Z,9
2019-05-19T15:30:12.739Z,8
2019-05-19T15:35:09.442Z,8
2019-05-19T15:40:12.205Z,8
2019-05-19T15:45:14.366Z,10
2019-05-19T15:50:16.820Z,9
2019-05-19T15:55:19.346Z,8
2019-05-19T16:00:21.837Z,9
2019-05-19T16:05:24.178Z,9
2019-05-19T16:10:26.653Z,8
2019-05-19T16:15:29.105Z,9
2019-05-19T16:20:31.589Z,9
2019-05-19T16:25:34.034Z,10
2019-05-19T16:30:36.599Z,10
2019-05-19T16:35:39.049Z,10
2019-05-19T16:40:41.412Z,11
2019-05-19T16:45:43.865Z,9
2019-05-19T16:50:46.356Z,11
2019-05-19T16:55:48.795Z,9
2019-05-19T17:00:51.324Z,9
2019-05-19T17:05:53.687Z,8
2019-05-19T17:10:56.255Z,8
2019-05-19T17:15:58.621Z,9
2019-05-19T17:21:01.083Z,9
2019-05-19T17:26:03.518Z,9
2019-05-19T17:31:07.670Z,9
2019-05-19T17:36:08.442Z,9
2019-05-19T17:41:10.894Z,9
2019-05-19T17:46:13.414Z,8
2019-05-19T17:51:15.861Z,8
2019-05-19T17:56:18.268Z,9
2019-05-19T18:01:20.817Z,9
2019-05-19T18:06:23.194Z,8
2019-05-19T18:11:25.655Z,10
2019-05-19T18:16:28.163Z,11
2019-05-19T18:21:30.581Z,9
2019-05-19T18:26:33.019Z,9
2019-05-19T18:31:35.571Z,9
2019-05-19T18:36:37.953Z,10
2019-05-19T18:41:40.401Z,10
2019-05-19T18:46:42.859Z,11
2019-05-19T18:51:45.328Z,10
2019-05-19T18:56:50.605Z,10
2019-05-19T19:01:50.302Z,11
2019-05-19T19:06:52.740Z,14
2019-05-19T19:11:55.174Z,12
2019-05-19T19:16:57.622Z,11
2019-05-19T19:22:00.300Z,12
2019-05-19T19:27:02.515Z,13
2019-05-19T19:32:05.093Z,13
2019-05-19T19:37:07.430Z,14
2019-05-19T19:42:09.896Z,13
2019-05-19T19:47:12.372Z,13
2019-05-19T19:52:14.837Z,12
2019-05-19T20:02:19.728Z,14
2019-05-19T20:07:22.196Z,13
2019-05-19T20:12:24.674Z,11
2019-05-19T20:17:27.104Z,14
2019-05-19T20:22:29.591Z,13
2019-05-19T20:27:32.037Z,12
2019-05-19T20:32:34.471Z,14
2019-05-19T20:37:36.933Z,14
2019-05-19T20:42:39.405Z,13
2019-05-19T20:47:41.832Z,13
2019-05-19T20:52:44.303Z,12
2019-05-19T20:57:46.771Z,15
2019-05-19T21:02:49.228Z,13
2019-05-19T21:07:51.726Z,11
2019-05-19T21:12:57.221Z,12
2019-05-19T21:17:56.587Z,13
2019-05-19T21:22:59.055Z,12
2019-05-19T21:28:01.505Z,15
2019-05-19T21:33:03.954Z,13
2019-05-19T21:38:06.468Z,12
2019-05-19T21:43:08.877Z,14
2019-05-19T21:48:11.364Z,15
2019-05-19T21:53:13.808Z,13
2019-05-19T21:58:16.283Z,13
2019-05-19T22:03:18.753Z,14
2019-05-19T22:08:21.224Z,15
2019-05-19T22:13:23.631Z,16
2019-05-19T22:18:26.079Z,13
2019-05-19T22:23:29.239Z,14
2019-05-19T22:28:30.992Z,13
2019-05-19T22:33:33.463Z,14
2019-05-19T22:38:37.260Z,15
2019-05-19T22:43:38.385Z,14
2019-05-19T22:48:40.821Z,14
2019-05-19T22:53:43.300Z,15
2019-05-19T22:58:45.752Z,15
2019-05-19T23:03:48.190Z,14
2019-05-19T23:08:50.654Z,16
2019-05-19T23:13:53.189Z,14
2019-05-19T23:18:55.556Z,13
2019-05-19T23:23:58.073Z,14
2019-05-19T23:29:00.472Z,15
2019-05-19T23:34:02.963Z,15
2019-05-19T23:39:05.398Z,18
2019-05-19T23:44:08.110Z,14
2019-05-19T23:49:10.308Z,19
2019-05-19T23:54:12.803Z,17
2019-05-19T23:59:15.327Z,16
